Maarsbergen, Netherlands
Current Conditions -  °F | °C
As of 9:55 PM on Friday 31 Oct 2014 (Local Time) from EHDL Reporting Station
Haze Haze  
Wind Chill: 55°   Ceiling: Unl
Heat Index: 55°   Visibility: 4mi
Dew Point: 55°   Wind: 5mph
Humidity: 100%   Direction: 140°SE
Pressure: 30.12"   Gusts: NA
Location:  52.06°N, 5.41°E
Report Text: EHDL 312055Z AUTO 14004KT 7000 BR FEW100 13/13 Q1020 WHT
Loading
Personal Weather Stations






























Interactive Weather Map
Tropical Storm Tracking
New forecast layout! Learn more

10-Day Weather Forecast

Advertisements
Track Severe Weather on mobile